Terminal Aerodrome Forecast
Issued by NWS

Home | Current Version | Previous Version | Graphics & Text | Print | Product List | Glossary On
Versions: 1 2 3 4 5 6 7 8 9 10 11 12 13 14 15
000
FTUS43 KBIS 212333
TAFJMS
TAF
KJMS 212333Z 2200/2224 33019G28KT P6SM FEW070 FEW250
     FM220200 33009KT P6SM FEW080 FEW200
     FM221600 30015KT P6SM FEW070 FEW200
     FM222000 30019G27KT P6SM FEW070 FEW200=

USA.gov is the U.S. government's official web portal to all federal, state and local government web resources and services.